createdAt,value
2022-08-25T00:01:59.998Z,20.80
2022-08-25T00:04:29.510Z,20.80
2022-08-25T00:07:02.261Z,20.90
2022-08-25T00:09:31.518Z,20.80
2022-08-25T00:11:59.337Z,20.90
2022-08-25T00:14:33.754Z,20.90
2022-08-25T00:17:00.903Z,20.80
2022-08-25T00:19:32.187Z,20.80
2022-08-25T00:22:00.787Z,20.80
2022-08-25T00:24:28.185Z,20.80
2022-08-25T00:26:56.910Z,20.80
2022-08-25T00:29:30.981Z,20.80
2022-08-25T00:31:58.308Z,20.80
2022-08-25T00:34:37.075Z,20.80
2022-08-25T00:37:07.289Z,20.80
2022-08-25T00:39:34.652Z,20.80
2022-08-25T00:42:03.186Z,20.80
2022-08-25T00:44:31.760Z,20.70
2022-08-25T00:47:01.014Z,20.70
2022-08-25T00:49:36.229Z,20.70
2022-08-25T00:52:07.337Z,20.70
2022-08-25T00:54:40.932Z,20.80
2022-08-25T00:57:10.772Z,20.80
2022-08-25T00:59:37.606Z,20.70
2022-08-25T01:02:07.259Z,20.70
2022-08-25T01:04:37.712Z,20.70
2022-08-25T01:07:05.841Z,20.70
2022-08-25T01:09:38.246Z,20.70
2022-08-25T01:12:06.106Z,20.60
2022-08-25T01:14:34.706Z,20.60
2022-08-25T01:17:01.503Z,20.60
2022-08-25T01:19:28.813Z,20.60
2022-08-25T01:21:56.450Z,20.60
2022-08-25T01:24:40.824Z,20.50
2022-08-25T01:27:08.424Z,20.50
2022-08-25T01:29:36.863Z,20.50
2022-08-25T01:32:10.850Z,20.50
2022-08-25T01:34:41.346Z,20.50
2022-08-25T01:37:09.679Z,20.50
2022-08-25T01:39:40.598Z,20.50
2022-08-25T01:42:08.980Z,20.50
2022-08-25T01:44:47.017Z,20.50
2022-08-25T01:47:14.983Z,20.40
2022-08-25T01:49:42.076Z,20.50
2022-08-25T01:52:25.590Z,20.50
2022-08-25T01:54:52.389Z,20.60
2022-08-25T01:57:19.152Z,20.50
2022-08-25T01:59:46.105Z,20.50
2022-08-25T02:02:12.983Z,20.50
2022-08-25T02:04:40.672Z,20.50
2022-08-25T02:07:10.957Z,20.50
2022-08-25T02:09:38.346Z,20.50
2022-08-25T02:12:05.547Z,20.50
2022-08-25T02:14:32.523Z,20.50
2022-08-25T02:16:59.243Z,20.30
2022-08-25T02:19:26.440Z,20.40
2022-08-25T02:21:53.685Z,20.40
2022-08-25T02:24:20.507Z,20.40
2022-08-25T02:26:47.326Z,20.50
2022-08-25T02:29:14.419Z,20.50
2022-08-25T02:31:41.231Z,20.50
2022-08-25T02:34:10.013Z,20.50
2022-08-25T02:36:38.181Z,20.50
2022-08-25T02:39:08.682Z,20.50
2022-08-25T02:41:36.357Z,20.50
2022-08-25T02:44:04.701Z,20.40
2022-08-25T02:46:32.202Z,20.40
2022-08-25T02:48:59.333Z,20.40
2022-08-25T02:51:29.968Z,20.40
2022-08-25T02:53:58.574Z,20.40
2022-08-25T02:56:25.925Z,20.40
2022-08-25T02:58:52.778Z,20.40
2022-08-25T03:01:20.300Z,20.40
2022-08-25T03:03:49.331Z,20.40
2022-08-25T03:06:19.351Z,20.40
2022-08-25T03:08:46.135Z,20.40
2022-08-25T03:11:13.161Z,20.40
2022-08-25T03:13:40.574Z,20.40
2022-08-25T03:16:10.857Z,20.40
2022-08-25T03:18:39.888Z,20.40
2022-08-25T03:21:07.507Z,20.40
2022-08-25T03:23:34.424Z,20.40
2022-08-25T03:26:19.992Z,20.30
2022-08-25T03:28:46.829Z,20.30
2022-08-25T03:31:13.676Z,20.30
2022-08-25T03:33:40.408Z,20.30
2022-08-25T03:36:08.843Z,20.30
2022-08-25T03:38:38.211Z,20.30
2022-08-25T03:41:34.988Z,20.30
2022-08-25T03:44:04.000Z,20.30
2022-08-25T03:46:34.499Z,20.30
2022-08-25T03:49:03.887Z,20.30
2022-08-25T03:51:42.495Z,20.30
2022-08-25T03:54:10.664Z,20.30
2022-08-25T03:56:38.286Z,20.30
2022-08-25T03:59:06.012Z,20.30
2022-08-25T04:01:32.820Z,20.40
2022-08-25T04:03:59.611Z,20.40
2022-08-25T04:06:26.300Z,20.40
2022-08-25T04:08:53.115Z,20.40
2022-08-25T04:11:23.328Z,20.40
2022-08-25T04:13:51.918Z,20.50
2022-08-25T04:16:31.211Z,20.50
2022-08-25T04:19:00.525Z,20.60
2022-08-25T04:21:28.185Z,20.60
2022-08-25T04:23:56.400Z,20.70
2022-08-25T04:26:24.955Z,20.70
2022-08-25T04:28:52.753Z,20.80
2022-08-25T04:31:24.670Z,21.00
2022-08-25T04:33:51.720Z,21.20
2022-08-25T04:36:19.753Z,21.30
2022-08-25T04:38:47.781Z,21.50
2022-08-25T04:41:16.748Z,21.70
2022-08-25T04:43:44.394Z,21.90
2022-08-25T04:46:14.780Z,22.10
2022-08-25T04:48:47.878Z,22.30
2022-08-25T04:51:17.387Z,22.60
2022-08-25T04:53:44.624Z,22.90
2022-08-25T04:56:16.514Z,23.10
2022-08-25T04:58:43.730Z,23.40
2022-08-25T05:01:17.220Z,23.70
2022-08-25T05:03:45.704Z,23.90
2022-08-25T05:06:16.052Z,24.10
2022-08-25T05:08:45.919Z,24.30
2022-08-25T05:11:17.894Z,24.50
2022-08-25T05:13:51.372Z,24.70
2022-08-25T05:16:19.868Z,24.90
2022-08-25T05:18:47.392Z,25.20
2022-08-25T05:21:18.109Z,25.40
2022-08-25T05:23:46.919Z,25.70
2022-08-25T05:26:20.557Z,25.90
2022-08-25T05:28:50.395Z,26.00
2022-08-25T05:31:18.248Z,26.20
2022-08-25T05:33:45.531Z,26.20
2022-08-25T05:36:13.649Z,26.20
2022-08-25T05:38:41.747Z,26.20
2022-08-25T05:41:12.954Z,26.40
2022-08-25T05:43:41.964Z,26.60
2022-08-25T05:46:09.796Z,26.80
2022-08-25T05:48:36.964Z,26.90
2022-08-25T05:51:05.536Z,27.10
2022-08-25T05:53:33.967Z,27.40
2022-08-25T05:56:01.424Z,27.80
2022-08-25T05:58:29.413Z,28.10
2022-08-25T06:00:57.719Z,28.30
2022-08-25T06:03:24.544Z,28.30
2022-08-25T06:05:51.283Z,28.50
2022-08-25T06:08:18.033Z,28.80
2022-08-25T06:10:44.735Z,29.00
2022-08-25T06:13:11.482Z,29.30
2022-08-25T06:15:39.309Z,29.40
2022-08-25T06:18:07.133Z,29.60
2022-08-25T06:20:34.019Z,29.70
2022-08-25T06:23:01.304Z,30.00
2022-08-25T06:25:28.363Z,30.20
2022-08-25T06:27:55.385Z,30.30
2022-08-25T06:30:28.450Z,30.50
2022-08-25T06:32:55.799Z,30.50
2022-08-25T06:35:22.791Z,30.60
2022-08-25T06:37:49.692Z,30.80
2022-08-25T06:40:16.927Z,30.90
2022-08-25T06:42:48.290Z,31.20
2022-08-25T06:45:15.151Z,31.40
2022-08-25T06:47:42.818Z,31.50
2022-08-25T06:50:12.222Z,31.60
2022-08-25T06:52:38.913Z,31.80
2022-08-25T06:55:06.727Z,32.00
2022-08-25T06:57:35.725Z,32.10
2022-08-25T07:00:05.764Z,32.20
2022-08-25T07:02:33.215Z,32.40
2022-08-25T07:05:02.993Z,32.50
2022-08-25T07:07:43.259Z,32.60
2022-08-25T07:10:11.294Z,32.90
2022-08-25T07:12:38.009Z,33.00
2022-08-25T07:15:21.216Z,33.20
2022-08-25T07:17:49.080Z,33.30
2022-08-25T07:20:19.269Z,33.50
2022-08-25T07:22:46.789Z,33.70
2022-08-25T07:25:13.732Z,33.90
2022-08-25T07:27:42.349Z,34.00
2022-08-25T07:30:11.500Z,34.30
2022-08-25T07:32:38.330Z,34.40
2022-08-25T07:35:16.018Z,34.60
2022-08-25T07:37:50.114Z,34.80
2022-08-25T07:40:29.487Z,35.00
2022-08-25T07:42:59.822Z,35.30
2022-08-25T07:45:30.645Z,35.50
2022-08-25T07:48:00.154Z,35.70
2022-08-25T07:50:29.318Z,35.90
2022-08-25T07:52:57.752Z,35.90
2022-08-25T07:55:26.384Z,35.80
2022-08-25T07:57:57.104Z,35.70
2022-08-25T08:00:27.713Z,35.70
2022-08-25T08:02:54.939Z,35.80
2022-08-25T08:05:23.863Z,35.80
2022-08-25T08:07:51.778Z,35.90
2022-08-25T08:13:07.885Z,35.80
2022-08-25T08:15:35.413Z,35.60
2022-08-25T08:18:03.137Z,35.60
2022-08-25T08:20:42.368Z,35.50
2022-08-25T08:23:10.054Z,35.50
2022-08-25T08:25:36.798Z,35.50
2022-08-25T08:28:03.667Z,35.50
2022-08-25T08:30:30.373Z,35.30
2022-08-25T08:33:09.615Z,35.20
2022-08-25T08:35:37.096Z,35.10
2022-08-25T08:38:05.444Z,35.10
2022-08-25T08:41:07.069Z,35.20
2022-08-25T08:43:34.437Z,35.20
2022-08-25T08:46:04.249Z,35.30
2022-08-25T08:48:34.297Z,35.30
2022-08-25T08:51:17.204Z,35.30
2022-08-25T08:54:01.301Z,35.10
2022-08-25T08:56:47.918Z,35.10
2022-08-25T08:59:22.032Z,34.90
2022-08-25T09:02:00.456Z,34.90
2022-08-25T09:04:58.481Z,34.70
2022-08-25T09:07:38.043Z,34.60
2022-08-25T09:10:10.568Z,34.60
2022-08-25T09:12:47.513Z,34.50
2022-08-25T09:15:52.890Z,34.40
2022-08-25T09:18:41.145Z,34.10
2022-08-25T09:21:30.997Z,34.00
2022-08-25T09:24:30.137Z,34.00
2022-08-25T09:27:33.887Z,34.00
2022-08-25T09:30:14.453Z,33.90
2022-08-25T09:35:26.181Z,33.60
2022-08-25T09:38:08.862Z,33.60
2022-08-25T09:40:42.729Z,33.50
2022-08-25T09:43:20.626Z,33.50
2022-08-25T09:46:10.572Z,33.50
2022-08-25T09:48:43.091Z,33.60
2022-08-25T09:51:21.770Z,33.40
2022-08-25T09:54:15.365Z,33.30
2022-08-25T09:56:52.647Z,33.40
2022-08-25T09:59:35.794Z,33.40
2022-08-25T10:02:26.344Z,33.40
2022-08-25T10:04:54.603Z,33.40
2022-08-25T10:07:38.431Z,33.40
2022-08-25T10:10:18.334Z,33.30
2022-08-25T10:12:51.078Z,33.20
2022-08-25T10:15:29.598Z,33.30
2022-08-25T10:18:16.894Z,33.20
2022-08-25T10:20:44.618Z,33.10
2022-08-25T10:23:13.804Z,33.00
2022-08-25T10:25:58.933Z,33.00
2022-08-25T10:28:38.696Z,32.80
2022-08-25T10:31:15.323Z,32.80
2022-08-25T10:33:45.480Z,32.70
2022-08-25T10:36:23.191Z,32.70
2022-08-25T10:38:57.071Z,32.60
2022-08-25T10:41:48.581Z,32.50
2022-08-25T10:45:00.317Z,32.40
2022-08-25T10:47:42.735Z,32.30
2022-08-25T10:50:23.453Z,32.20
2022-08-25T10:53:18.209Z,32.20
2022-08-25T11:06:54.888Z,32.20
2022-08-25T11:09:28.101Z,32.10
2022-08-25T11:12:03.493Z,32.00
2022-08-25T11:14:40.209Z,32.00
2022-08-25T11:17:12.172Z,31.90
2022-08-25T11:19:45.705Z,31.90
2022-08-25T11:22:21.891Z,31.80
2022-08-25T11:25:20.218Z,31.70
2022-08-25T11:27:54.551Z,31.60
2022-08-25T11:30:21.990Z,31.50
2022-08-25T11:32:54.175Z,31.40
2022-08-25T11:35:37.450Z,31.20
2022-08-25T11:38:38.682Z,31.20
2022-08-25T11:41:24.896Z,31.20
2022-08-25T11:44:08.445Z,31.20
2022-08-25T11:46:39.584Z,31.10
2022-08-25T11:49:37.648Z,31.20
2022-08-25T11:52:30.685Z,31.00
2022-08-25T11:55:06.507Z,31.00
2022-08-25T11:57:37.488Z,30.90
2022-08-25T12:00:15.196Z,30.90
2022-08-25T12:02:52.478Z,30.80
2022-08-25T12:05:20.223Z,30.80
2022-08-25T12:07:47.741Z,30.80
2022-08-25T12:10:22.680Z,30.70
2022-08-25T12:13:10.302Z,30.50
2022-08-25T12:15:44.156Z,30.50
2022-08-25T12:18:22.974Z,30.40
2022-08-25T12:20:58.854Z,30.30
2022-08-25T12:24:02.516Z,30.20
2022-08-25T12:27:06.890Z,30.30
2022-08-25T12:29:43.692Z,30.30
2022-08-25T12:32:38.873Z,30.20
2022-08-25T12:35:29.997Z,30.20
2022-08-25T12:38:06.612Z,30.20
2022-08-25T12:41:14.499Z,30.20
2022-08-25T12:43:45.361Z,30.20
2022-08-25T12:46:28.231Z,30.30
2022-08-25T12:49:04.957Z,30.30
2022-08-25T12:51:40.794Z,30.20
2022-08-25T12:54:37.281Z,30.10
2022-08-25T12:57:32.707Z,30.20
2022-08-25T13:00:05.582Z,30.20
2022-08-25T13:02:52.069Z,30.10
2022-08-25T13:05:41.829Z,30.20
2022-08-25T13:08:46.702Z,30.20
2022-08-25T13:11:20.194Z,30.10
2022-08-25T13:13:53.877Z,30.10
2022-08-25T13:16:29.058Z,30.10
2022-08-25T13:19:02.003Z,30.10
2022-08-25T13:21:37.219Z,30.10
2022-08-25T13:24:10.567Z,30.10
2022-08-25T13:26:48.159Z,30.20
2022-08-25T13:29:35.133Z,30.20
2022-08-25T13:32:09.447Z,30.20
2022-08-25T13:34:42.883Z,30.20
2022-08-25T13:37:29.592Z,30.20
2022-08-25T13:40:24.514Z,30.10
2022-08-25T13:43:01.251Z,30.10
2022-08-25T13:45:34.641Z,30.10
2022-08-25T13:48:23.132Z,30.00
2022-08-25T13:51:04.195Z,30.00
2022-08-25T13:53:31.738Z,30.10
2022-08-25T13:56:02.396Z,30.10
2022-08-25T13:58:44.545Z,30.10
2022-08-25T14:01:22.889Z,30.10
2022-08-25T14:04:26.846Z,30.10
2022-08-25T14:07:09.508Z,30.10
2022-08-25T14:09:41.551Z,30.20
2022-08-25T14:12:08.845Z,30.20
2022-08-25T14:14:40.401Z,30.20
2022-08-25T14:17:22.199Z,30.30
2022-08-25T14:19:58.282Z,30.30
2022-08-25T14:22:26.056Z,30.30
2022-08-25T14:24:54.649Z,30.30
2022-08-25T14:27:21.765Z,30.30
2022-08-25T14:29:52.646Z,30.30
2022-08-25T14:32:20.774Z,30.30
2022-08-25T14:34:48.276Z,30.30
2022-08-25T14:37:20.762Z,30.40
2022-08-25T14:39:54.496Z,30.50
2022-08-25T14:42:26.201Z,30.50
2022-08-25T14:44:53.178Z,30.40
2022-08-25T14:47:21.200Z,30.40
2022-08-25T14:49:51.094Z,30.30
2022-08-25T14:52:28.439Z,30.30
2022-08-25T14:54:57.253Z,30.30
2022-08-25T14:57:25.602Z,30.40
2022-08-25T14:59:53.554Z,30.40
2022-08-25T15:02:30.664Z,30.40
2022-08-25T15:11:20.669Z,30.40
2022-08-25T15:13:52.994Z,30.40
2022-08-25T15:16:34.976Z,30.30
2022-08-25T15:19:18.152Z,30.30
2022-08-25T15:21:47.811Z,30.20
2022-08-25T15:24:40.323Z,30.30
2022-08-25T15:34:40.172Z,30.20
2022-08-25T15:37:11.881Z,30.20
2022-08-25T15:39:43.149Z,30.10
2022-08-25T15:44:58.736Z,30.10
2022-08-25T15:47:53.872Z,30.10
2022-08-25T15:50:29.878Z,30.00
2022-08-25T15:53:00.271Z,30.00
2022-08-25T15:55:52.531Z,30.00
2022-08-25T15:58:25.415Z,30.00
2022-08-25T16:00:56.505Z,30.00
2022-08-25T16:03:25.978Z,30.00
2022-08-25T16:05:57.646Z,30.10
2022-08-25T16:08:30.165Z,30.10
2022-08-25T16:11:02.213Z,30.00
2022-08-25T16:16:16.454Z,29.90
2022-08-25T16:19:18.215Z,29.90
2022-08-25T16:25:47.439Z,29.70
2022-08-25T16:28:17.427Z,29.70
2022-08-25T16:33:57.648Z,29.60
2022-08-25T16:36:28.604Z,29.60
2022-08-25T16:38:58.717Z,29.60
2022-08-25T16:44:15.981Z,29.60
2022-08-25T16:46:44.298Z,29.40
2022-08-25T16:49:14.617Z,29.40
2022-08-25T16:51:44.270Z,29.30
2022-08-25T16:54:41.920Z,29.20
2022-08-25T16:57:33.687Z,29.10
2022-08-25T17:00:02.298Z,29.10
2022-08-25T17:02:29.669Z,29.00
2022-08-25T17:04:57.271Z,29.00
2022-08-25T17:07:28.232Z,28.90
2022-08-25T17:09:59.412Z,28.90
2022-08-25T17:12:32.589Z,28.90
2022-08-25T17:15:06.133Z,28.90
2022-08-25T17:17:42.950Z,28.80
2022-08-25T17:20:10.673Z,28.70
2022-08-25T17:22:38.419Z,28.60
2022-08-25T17:25:06.959Z,28.50
2022-08-25T17:27:34.831Z,28.40
2022-08-25T17:30:02.761Z,28.30
2022-08-25T17:32:30.698Z,28.30
2022-08-25T17:34:59.724Z,28.20
2022-08-25T17:37:27.386Z,28.20
2022-08-25T17:39:57.429Z,28.10
2022-08-25T17:42:31.981Z,28.10
2022-08-25T17:44:58.838Z,28.00
2022-08-25T17:47:27.748Z,27.90
2022-08-25T17:49:54.709Z,27.90
2022-08-25T17:52:25.078Z,27.80
2022-08-25T17:54:53.208Z,27.70
2022-08-25T17:57:22.188Z,27.60
2022-08-25T17:59:50.222Z,27.50
2022-08-25T18:02:20.071Z,27.40
2022-08-25T18:04:48.012Z,27.20
2022-08-25T18:07:15.236Z,27.10
2022-08-25T18:09:42.378Z,27.00
2022-08-25T18:12:10.054Z,26.80
2022-08-25T18:14:39.882Z,26.70
2022-08-25T18:17:08.081Z,26.60
2022-08-25T18:19:35.337Z,26.40
2022-08-25T18:22:06.839Z,26.30
2022-08-25T18:24:35.960Z,26.20
2022-08-25T18:27:03.470Z,26.10
2022-08-25T18:29:31.763Z,26.00
2022-08-25T18:32:00.561Z,25.90
2022-08-25T18:34:31.626Z,25.80
2022-08-25T18:37:18.699Z,25.70
2022-08-25T18:40:04.810Z,25.60
2022-08-25T18:42:36.382Z,25.50
2022-08-25T18:45:06.773Z,25.40
2022-08-25T18:47:34.764Z,25.20
2022-08-25T18:50:04.684Z,25.10
2022-08-25T18:52:33.136Z,25.00
2022-08-25T18:55:01.906Z,24.90
2022-08-25T18:57:29.924Z,24.80
2022-08-25T18:59:57.802Z,24.60
2022-08-25T19:02:25.773Z,24.50
2022-08-25T19:04:53.843Z,24.40
2022-08-25T19:07:21.964Z,24.30
2022-08-25T19:09:50.866Z,24.20
2022-08-25T19:12:22.828Z,24.10
2022-08-25T19:14:51.091Z,24.00
2022-08-25T19:17:24.840Z,23.90
2022-08-25T19:19:53.281Z,23.80
2022-08-25T19:22:40.710Z,23.70
2022-08-25T19:25:10.262Z,23.60
2022-08-25T19:27:38.347Z,23.60
2022-08-25T19:30:11.578Z,23.50
2022-08-25T19:32:43.082Z,23.50
2022-08-25T19:35:17.176Z,23.40
2022-08-25T19:37:45.221Z,23.40
2022-08-25T19:40:18.241Z,23.40
2022-08-25T19:42:46.247Z,23.40
2022-08-25T19:45:15.160Z,23.30
2022-08-25T19:47:43.159Z,23.40
2022-08-25T19:50:14.782Z,23.40
2022-08-25T19:52:45.178Z,23.40
2022-08-25T19:55:13.765Z,23.40
2022-08-25T19:57:42.658Z,23.40
2022-08-25T20:00:16.107Z,23.30
2022-08-25T20:02:45.334Z,23.20
2022-08-25T20:05:14.958Z,23.20
2022-08-25T20:07:43.039Z,23.10
2022-08-25T20:10:14.042Z,23.10
2022-08-25T20:12:43.123Z,23.00
2022-08-25T20:15:11.927Z,23.00
2022-08-25T20:18:18.763Z,22.90
2022-08-25T20:20:46.276Z,22.90
2022-08-25T20:23:32.179Z,22.90
2022-08-25T20:25:59.784Z,22.80
2022-08-25T20:28:27.648Z,22.80
2022-08-25T20:30:55.517Z,22.70
2022-08-25T20:33:23.106Z,22.60
2022-08-25T20:35:53.122Z,22.60
2022-08-25T20:38:20.911Z,22.50
2022-08-25T20:40:48.588Z,22.40
2022-08-25T20:43:16.290Z,22.40
2022-08-25T20:45:44.087Z,22.30
2022-08-25T20:48:11.583Z,22.30
2022-08-25T20:50:40.200Z,22.30
2022-08-25T20:53:10.316Z,22.20
2022-08-25T20:55:44.478Z,22.20
2022-08-25T20:58:14.107Z,22.20
2022-08-25T21:00:46.354Z,22.30
2022-08-25T21:03:14.028Z,22.20
2022-08-25T21:05:42.876Z,22.20
2022-08-25T21:08:11.332Z,22.10
2022-08-25T21:10:38.758Z,22.20
2022-08-25T21:13:07.007Z,22.10
2022-08-25T21:15:34.579Z,22.10
2022-08-25T21:18:02.480Z,22.10
2022-08-25T21:20:30.273Z,22.10
2022-08-25T21:22:57.152Z,22.00
2022-08-25T21:25:24.800Z,22.00
2022-08-25T21:27:51.740Z,22.00
2022-08-25T21:33:05.186Z,21.90
2022-08-25T21:35:31.981Z,21.90
2022-08-25T21:37:58.711Z,21.90
2022-08-25T21:40:25.766Z,21.90
2022-08-25T21:42:52.750Z,21.90
2022-08-25T21:45:21.037Z,21.90
2022-08-25T21:47:48.877Z,22.00
2022-08-25T21:50:15.632Z,22.00
2022-08-25T21:52:42.589Z,22.00
2022-08-25T21:55:16.271Z,22.00
2022-08-25T21:57:43.956Z,22.00
2022-08-25T22:00:13.088Z,22.00
2022-08-25T22:02:39.867Z,22.00
2022-08-25T22:05:11.598Z,22.00
2022-08-25T22:07:42.068Z,21.90
2022-08-25T22:10:16.599Z,21.90
2022-08-25T22:12:45.615Z,21.90
2022-08-25T22:15:18.112Z,21.90
2022-08-25T22:17:49.821Z,21.80
2022-08-25T22:20:17.834Z,21.70
2022-08-25T22:22:44.830Z,21.60
2022-08-25T22:25:13.007Z,21.60
2022-08-25T22:27:39.750Z,21.50
2022-08-25T22:30:07.193Z,21.50
2022-08-25T22:32:33.992Z,21.50
2022-08-25T22:35:01.456Z,21.40
2022-08-25T22:37:28.505Z,21.40
2022-08-25T22:39:57.250Z,21.40
2022-08-25T22:42:25.689Z,21.30
2022-08-25T22:44:53.870Z,21.30
2022-08-25T22:47:20.812Z,21.30
2022-08-25T22:49:47.545Z,21.30
2022-08-25T22:52:14.872Z,21.30
2022-08-25T22:54:41.841Z,21.30
2022-08-25T22:57:08.856Z,21.30
2022-08-25T22:59:36.911Z,21.30
2022-08-25T23:02:03.868Z,21.30
2022-08-25T23:04:30.615Z,21.30
2022-08-25T23:06:57.596Z,21.30
2022-08-25T23:09:24.829Z,21.30
2022-08-25T23:11:59.194Z,21.20
2022-08-25T23:14:25.975Z,21.20
2022-08-25T23:16:54.241Z,21.20
2022-08-25T23:19:22.861Z,21.10
2022-08-25T23:22:10.750Z,21.10
2022-08-25T23:24:43.886Z,21.10
2022-08-25T23:27:13.685Z,21.10
2022-08-25T23:29:43.134Z,21.00
2022-08-25T23:32:14.042Z,21.00
2022-08-25T23:34:42.949Z,20.90
2022-08-25T23:37:14.495Z,20.90
2022-08-25T23:39:45.326Z,20.90
2022-08-25T23:42:12.066Z,20.90
2022-08-25T23:44:38.752Z,20.90
2022-08-25T23:47:07.002Z,20.90
2022-08-25T23:49:33.920Z,20.80
2022-08-25T23:52:01.438Z,20.90
2022-08-25T23:54:31.279Z,20.80
2022-08-25T23:56:58.882Z,20.80
2022-08-25T23:59:25.806Z,20.80
